Ensenada, Mexico

9:10 AM PST on December 04, 2016 (GMT -0800)
PROTECCION CIVIL BC (ENSENADA) | | Change Station

Elev 69 ft 31.87 °N, 116.62 °W | Updated 9 minutes ago

Clear
Clear
64.6 °F
Feels Like 64.6 °F
N
0.0
Wind Variable Wind from SSE
Gusts 1.0 mph

Today
High -- | Low -- °F
--% Chance of Precip.
Yesterday
High -- | Low -- °F
Precip. -- in
Pressure 30.10 in
Visibility 10.0 miles
Clouds Clear
Dew Point 31 °F
Humidity 28%
Rainfall 0.00 in
Snow Depth Not available.
6:31 AM 4:42 PM
Waxing Crescent, 24% visible
METAR MMTJ 041642Z 00000KT 10SM SKC 15/M05 A3010
Pressure 30.10 in
Visibility 10.0 miles
Clouds Clear
Dew Point 31 °F
Humidity 28%
Rainfall 0.00 in
Snow Depth Not available.
6:31 AM 4:42 PM
Waxing Crescent, 24% visible
METAR MMTJ 041642Z 00000KT 10SM SKC 15/M05 A3010

10-Day Weather Forecast

No radar image for this location.
×

Almanac

Astronomy

Dec. 04, 2016 Rise Set
Actual Time
Civil Twilight
Nautical Twilight
Astronomical Twilight
Moon
Length of Visible Light
Length of Day
Tomorrow will be .
, % of the Moon is Illuminated

Today's Extremes

Country Highs Country Lows

Community

WunderPhotos

Upload Photos

1,955,609 photos uploaded!

WunderBlog® & News

Nearby

Air Quality

  Air Quality AQ Index Pollutant
Not available.

Snow Depth

Station Depth Elevation

Earthquake Activity

City Distance Mag. Time & Date
Minimum magnitude displayed is 2.5.

Coastal Water Temperatures

Place Temperature

Stations

Nearby Weather Stations

Station Location Temp. Windchill Dew Point Humidity Wind Precip. Elev Updated Type